createdAt,value
2017-04-22T08:35:09.415Z,6.90
2017-04-22T08:36:09.549Z,7.00
2017-04-22T08:37:09.815Z,6.90
2017-04-22T08:38:12.020Z,6.80
2017-04-22T08:39:12.444Z,6.80
2017-04-22T08:40:13.380Z,6.80
2017-04-22T08:41:14.571Z,6.80
2017-04-22T08:42:14.920Z,6.80
2017-04-22T08:43:15.386Z,6.90
2017-04-22T08:44:15.505Z,6.80
2017-04-22T08:45:15.628Z,6.80
2017-04-22T08:46:16.556Z,6.80
2017-04-22T08:47:16.638Z,6.80
2017-04-22T08:48:17.099Z,6.70
2017-04-22T08:49:17.191Z,6.70
2017-04-22T08:50:18.018Z,6.70
2017-04-22T08:51:18.523Z,6.70
2017-04-22T08:52:18.650Z,6.60
2017-04-22T08:53:19.575Z,6.50
2017-04-22T08:54:19.889Z,6.50
2017-04-22T08:55:20.049Z,6.50
2017-04-22T08:56:20.171Z,6.50
2017-04-22T08:57:20.241Z,6.50
2017-04-22T08:58:20.588Z,6.50
2017-04-22T08:59:20.614Z,6.50
2017-04-22T09:00:21.473Z,6.50
2017-04-22T09:01:21.592Z,6.60
2017-04-22T09:02:21.860Z,6.70
2017-04-22T09:03:26.015Z,6.80
2017-04-22T09:04:26.093Z,6.90
2017-04-22T09:05:26.178Z,7.10
2017-04-22T09:06:27.475Z,7.00
2017-04-22T09:07:27.634Z,7.10
2017-04-22T09:08:27.731Z,7.20
2017-04-22T09:09:27.828Z,7.20
2017-04-22T09:10:27.890Z,7.10
2017-04-22T09:11:28.206Z,6.90
2017-04-22T09:12:28.424Z,6.70
2017-04-22T09:13:28.508Z,6.60
2017-04-22T09:14:28.561Z,6.60
2017-04-22T09:15:29.322Z,6.60
2017-04-22T09:16:29.494Z,6.60
2017-04-22T09:17:29.795Z,6.70
2017-04-22T09:18:30.171Z,6.70
2017-04-22T09:19:31.076Z,6.80
2017-04-22T09:20:31.850Z,6.80
2017-04-22T09:21:32.761Z,6.80
2017-04-22T09:22:34.245Z,6.80
2017-04-22T09:23:34.841Z,6.90
2017-04-22T09:24:35.744Z,6.90
2017-04-22T09:25:35.986Z,6.90
2017-04-22T09:26:36.079Z,6.90
2017-04-22T09:27:36.949Z,6.80
2017-04-22T09:28:37.778Z,6.70
2017-04-22T09:29:38.636Z,6.60
2017-04-22T09:30:38.838Z,6.60
2017-04-22T09:31:39.214Z,6.60
2017-04-22T09:32:39.323Z,6.60
2017-04-22T09:33:39.408Z,6.60
2017-04-22T09:34:39.770Z,6.60
2017-04-22T09:35:41.483Z,6.60
2017-04-22T09:36:41.796Z,6.50
2017-04-22T09:37:42.333Z,6.50
2017-04-22T09:38:42.415Z,6.50
2017-04-22T09:39:43.253Z,6.50
2017-04-22T09:40:43.578Z,6.50
2017-04-22T09:41:43.621Z,6.60
2017-04-22T09:42:43.742Z,6.40
2017-04-22T09:43:45.051Z,6.40
2017-04-22T09:44:45.297Z,6.30
2017-04-22T09:45:46.183Z,6.30
2017-04-22T09:46:46.341Z,6.30
2017-04-22T09:47:47.395Z,6.30
2017-04-22T09:48:47.731Z,6.30
2017-04-22T09:49:47.922Z,6.30
2017-04-22T09:50:48.079Z,6.40
2017-04-22T09:51:48.298Z,6.60
2017-04-22T09:52:48.536Z,6.70
2017-04-22T09:53:48.825Z,6.80
2017-04-22T09:54:48.991Z,7.00
2017-04-22T09:55:49.171Z,7.20
2017-04-22T09:56:50.216Z,7.30
2017-04-22T09:57:51.253Z,7.40
2017-04-22T09:58:51.714Z,7.40
2017-04-22T09:59:52.028Z,7.50
2017-04-22T10:00:52.263Z,7.50
2017-04-22T10:01:52.487Z,7.40
2017-04-22T10:02:52.633Z,7.40
2017-04-22T10:03:52.858Z,7.40
2017-04-22T10:04:53.276Z,7.30
2017-04-22T10:05:53.496Z,7.30
2017-04-22T10:06:53.732Z,7.20
2017-04-22T10:07:54.138Z,7.30
2017-04-22T10:08:54.432Z,7.20
2017-04-22T10:09:54.743Z,7.20
2017-04-22T10:10:54.896Z,7.20
2017-04-22T10:11:55.051Z,7.30
2017-04-22T10:12:55.524Z,7.40
2017-04-22T10:13:57.519Z,7.50
2017-04-22T10:14:58.669Z,7.60
2017-04-22T10:15:58.835Z,7.70
2017-04-22T10:16:59.749Z,7.60
2017-04-22T10:17:59.851Z,7.60
2017-04-22T10:19:00.738Z,7.60
2017-04-22T10:20:00.880Z,7.70
2017-04-22T10:21:01.509Z,7.60
2017-04-22T10:22:02.575Z,7.60
2017-04-22T10:23:02.832Z,7.60
2017-04-22T10:24:02.940Z,7.70
2017-04-22T10:25:03.140Z,7.70
2017-04-22T10:26:03.220Z,7.70
2017-04-22T10:27:04.153Z,7.70
2017-04-22T10:28:04.951Z,7.70
2017-04-22T10:29:06.249Z,7.70
2017-04-22T10:30:06.439Z,7.70
2017-04-22T10:31:06.650Z,7.70
2017-04-22T10:32:07.448Z,7.70
2017-04-22T10:33:07.603Z,7.70
2017-04-22T10:34:07.716Z,7.60
2017-04-22T10:35:08.183Z,7.60
2017-04-22T10:36:08.394Z,7.70
2017-04-22T10:37:08.433Z,7.90
2017-04-22T10:38:08.546Z,8.10
2017-04-22T10:39:08.640Z,8.30
2017-04-22T10:40:09.477Z,8.30
2017-04-22T10:41:10.306Z,8.40
2017-04-22T10:42:10.400Z,8.40
2017-04-22T10:43:11.188Z,8.50
2017-04-22T10:44:12.083Z,8.50
2017-04-22T10:45:12.251Z,8.20
2017-04-22T10:46:12.395Z,8.30
2017-04-22T10:47:12.788Z,8.40
2017-04-22T10:48:13.670Z,8.40
2017-04-22T10:49:14.082Z,8.30
2017-04-22T10:50:14.226Z,8.30
2017-04-22T10:51:15.094Z,8.20
2017-04-22T10:52:15.247Z,8.20
2017-04-22T10:53:15.583Z,8.10
2017-04-22T10:54:16.416Z,8.10
2017-04-22T10:55:16.490Z,8.10
2017-04-22T10:56:16.584Z,8.20
2017-04-22T10:57:16.694Z,8.10
2017-04-22T10:58:16.845Z,8.00
2017-04-22T10:59:16.957Z,7.90
2017-04-22T11:00:17.321Z,7.80
2017-04-22T11:01:17.551Z,7.80
2017-04-22T11:02:17.599Z,7.80
2017-04-22T11:03:29.605Z,7.70
2017-04-22T11:04:29.731Z,7.80
2017-04-22T11:05:29.867Z,7.90
2017-04-22T11:06:30.687Z,8.00
2017-04-22T11:07:30.971Z,8.00
2017-04-22T11:08:44.786Z,8.20
2017-04-22T11:09:44.905Z,8.30
2017-04-22T11:10:44.965Z,8.30
2017-04-22T11:11:45.461Z,8.40
2017-04-22T11:12:46.536Z,8.50
2017-04-22T11:13:46.655Z,8.60
2017-04-22T11:14:47.969Z,8.50
2017-04-22T11:15:48.079Z,8.60
2017-04-22T11:16:48.203Z,8.60
2017-04-22T11:17:49.269Z,8.60
2017-04-22T11:18:56.888Z,8.70
2017-04-22T11:19:57.305Z,8.80
2017-04-22T11:20:58.174Z,8.90
2017-04-22T11:21:59.239Z,9.00
2017-04-22T11:22:59.358Z,9.10
2017-04-22T11:23:59.435Z,9.10
2017-04-22T11:24:59.562Z,9.10
2017-04-22T11:25:59.786Z,9.10
2017-04-22T11:26:59.986Z,9.20
2017-04-22T11:28:00.603Z,9.20
2017-04-22T11:29:00.862Z,9.30
2017-04-22T11:30:01.753Z,9.30
2017-04-22T11:31:01.912Z,9.40
2017-04-22T11:32:02.003Z,9.40
2017-04-22T11:33:02.133Z,9.50
2017-04-22T11:34:02.997Z,9.50
2017-04-22T11:35:03.094Z,9.60
2017-04-22T11:36:03.156Z,9.70
2017-04-22T11:37:04.139Z,9.70
2017-04-22T11:38:05.100Z,9.70
2017-04-22T11:39:05.972Z,9.80
2017-04-22T11:40:07.543Z,9.80
2017-04-22T11:41:08.400Z,9.60
2017-04-22T11:42:08.463Z,9.50
2017-04-22T11:43:08.693Z,9.30
2017-04-22T11:44:08.826Z,9.30
2017-04-22T11:45:09.017Z,9.30
2017-04-22T11:46:09.267Z,9.30
2017-04-22T11:47:09.665Z,9.40
2017-04-22T11:48:09.935Z,9.60
2017-04-22T11:49:10.050Z,9.80
2017-04-22T11:50:10.527Z,10.00
2017-04-22T11:51:10.775Z,9.90
2017-04-22T11:52:10.915Z,9.80
2017-04-22T11:53:11.017Z,9.70
2017-04-22T11:54:11.186Z,9.80
2017-04-22T11:55:11.252Z,9.60
2017-04-22T11:56:11.613Z,9.60
2017-04-22T11:57:12.572Z,9.70
2017-04-22T11:58:13.405Z,9.70
2017-04-22T11:59:13.723Z,9.80
2017-04-22T12:00:13.976Z,9.80
2017-04-22T12:01:14.815Z,9.70
2017-04-22T12:02:14.869Z,9.60
2017-04-22T12:03:14.919Z,9.50
2017-04-22T12:04:15.045Z,9.60
2017-04-22T12:05:15.167Z,9.60
2017-04-22T12:06:15.226Z,9.60
2017-04-22T12:07:15.440Z,9.80
2017-04-22T12:08:15.581Z,10.00
2017-04-22T12:09:16.060Z,10.20
2017-04-22T12:10:16.205Z,10.20
2017-04-22T12:11:16.319Z,10.40
2017-04-22T12:12:17.247Z,10.50
2017-04-22T12:13:17.425Z,10.60
2017-04-22T12:14:17.804Z,10.50
2017-04-22T12:15:18.034Z,10.40
2017-04-22T12:16:19.065Z,10.10
2017-04-22T12:17:19.196Z,9.70
2017-04-22T12:18:19.292Z,9.80
2017-04-22T12:19:19.344Z,9.90
2017-04-22T12:20:19.491Z,9.90
2017-04-22T12:21:19.777Z,9.90
2017-04-22T12:22:20.119Z,10.10
2017-04-22T12:23:21.433Z,10.20
2017-04-22T12:24:21.857Z,10.10
2017-04-22T12:25:22.001Z,10.10
2017-04-22T12:26:22.090Z,10.00
2017-04-22T12:27:23.204Z,10.00
2017-04-22T12:28:23.692Z,10.00
2017-04-22T12:29:23.844Z,10.10
2017-04-22T12:30:26.180Z,10.00
2017-04-22T12:31:26.587Z,10.10
2017-04-22T12:32:26.944Z,10.00
2017-04-22T12:33:27.698Z,9.90
2017-04-22T12:34:28.008Z,9.80
2017-04-22T12:35:28.191Z,9.90
2017-04-22T12:36:29.407Z,9.80
2017-04-22T12:37:29.493Z,9.60
2017-04-22T12:38:29.604Z,9.60
2017-04-22T12:39:29.675Z,9.60
2017-04-22T12:40:29.700Z,9.70
2017-04-22T12:41:29.778Z,9.60
2017-04-22T12:42:30.819Z,9.50
2017-04-22T12:43:31.267Z,9.50
2017-04-22T12:44:31.439Z,9.60
2017-04-22T12:45:32.396Z,9.60
2017-04-22T12:46:32.467Z,9.60
2017-04-22T12:47:34.542Z,9.50
2017-04-22T12:48:35.159Z,9.50
2017-04-22T12:49:35.476Z,9.50
2017-04-22T12:50:35.690Z,9.40
2017-04-22T12:51:36.557Z,9.40
2017-04-22T12:52:37.488Z,9.50
2017-04-22T12:53:37.595Z,9.50
2017-04-22T12:54:38.012Z,9.50
2017-04-22T12:55:38.077Z,9.60
2017-04-22T12:56:38.407Z,9.60
2017-04-22T12:57:38.498Z,9.60
2017-04-22T12:58:39.330Z,9.50
2017-04-22T12:59:39.440Z,9.50
2017-04-22T13:00:39.527Z,9.50
2017-04-22T13:01:39.736Z,9.50
2017-04-22T13:02:40.541Z,9.40
2017-04-22T13:03:40.630Z,9.40
2017-04-22T13:04:40.752Z,9.40
2017-04-22T13:05:41.106Z,9.40
2017-04-22T13:06:42.170Z,9.40
2017-04-22T13:07:42.229Z,9.30
2017-04-22T13:08:42.314Z,9.20
2017-04-22T13:09:42.741Z,9.20
2017-04-22T13:10:42.812Z,9.20
2017-04-22T13:11:42.898Z,9.30
2017-04-22T13:12:43.832Z,9.40
2017-04-22T13:13:44.311Z,9.30
2017-04-22T13:14:44.451Z,9.40
2017-04-22T13:15:44.776Z,9.40
2017-04-22T13:16:44.902Z,9.40
2017-04-22T13:17:45.008Z,9.30
2017-04-22T13:18:45.327Z,9.20
2017-04-22T13:19:45.450Z,9.30
2017-04-22T13:20:46.417Z,9.40
2017-04-22T13:21:47.243Z,9.40
2017-04-22T13:22:47.345Z,9.50
2017-04-22T13:23:47.402Z,9.30
2017-04-22T13:24:47.614Z,9.20
2017-04-22T13:25:47.665Z,9.10
2017-04-22T13:26:48.511Z,8.90
2017-04-22T13:27:48.622Z,8.70
2017-04-22T13:28:49.561Z,8.60
2017-04-22T13:29:49.650Z,8.60
2017-04-22T13:30:49.881Z,8.70
2017-04-22T13:31:50.317Z,8.90
2017-04-22T13:32:50.496Z,9.10
2017-04-22T13:33:51.623Z,9.40
2017-04-22T13:34:51.985Z,9.90
2017-04-22T13:35:52.037Z,10.30
2017-04-22T13:36:52.205Z,10.50
2017-04-22T13:37:52.506Z,10.40
2017-04-22T13:38:52.719Z,10.20
2017-04-22T13:39:53.037Z,10.20
2017-04-22T13:40:53.130Z,10.30
2017-04-22T13:41:53.963Z,10.50
2017-04-22T13:42:54.794Z,10.60
2017-04-22T13:43:55.143Z,10.60
2017-04-22T13:44:57.445Z,10.80
2017-04-22T13:45:57.896Z,10.70
2017-04-22T13:46:57.987Z,11.00
2017-04-22T13:47:58.039Z,11.50
2017-04-22T13:48:58.088Z,11.00
2017-04-22T13:49:59.026Z,10.90
2017-04-22T13:50:59.984Z,11.00
2017-04-22T13:52:00.094Z,11.20
2017-04-22T13:53:00.209Z,11.50
2017-04-22T13:54:00.447Z,11.50
2017-04-22T13:55:00.482Z,11.60
2017-04-22T13:56:01.389Z,11.80
2017-04-22T13:57:01.513Z,11.60
2017-04-22T13:58:02.499Z,11.40
2017-04-22T13:59:02.584Z,11.70
2017-04-22T14:00:02.922Z,11.90
2017-04-22T14:01:03.132Z,11.70
2017-04-22T14:02:03.222Z,11.40
2017-04-22T14:03:03.391Z,11.30
2017-04-22T14:04:03.546Z,11.50
2017-04-22T14:05:04.443Z,11.60
2017-04-22T14:06:05.318Z,11.80
2017-04-22T14:07:05.733Z,11.90
2017-04-22T14:08:05.988Z,11.70
2017-04-22T14:09:06.139Z,11.50
2017-04-22T14:10:06.199Z,11.10
2017-04-22T14:11:06.291Z,11.30
2017-04-22T14:12:06.615Z,11.00
2017-04-22T14:13:06.817Z,10.90
2017-04-22T14:14:06.881Z,11.00
2017-04-22T14:15:07.702Z,11.10
2017-04-22T14:16:07.827Z,11.10
2017-04-22T14:17:08.736Z,11.10
2017-04-22T14:18:08.820Z,10.90
2017-04-22T14:19:09.064Z,10.10
2017-04-22T14:20:09.148Z,9.60
2017-04-22T14:21:09.211Z,9.30
2017-04-22T14:22:09.342Z,8.90
2017-04-22T14:23:09.455Z,9.00
2017-04-22T14:24:09.540Z,9.30
2017-04-22T14:25:09.640Z,9.40
2017-04-22T14:26:10.111Z,9.60
2017-04-22T14:27:10.311Z,10.00
2017-04-22T14:28:11.398Z,10.00
2017-04-22T14:29:11.975Z,9.70
2017-04-22T14:30:12.400Z,9.60
2017-04-22T14:31:12.967Z,9.30
2017-04-22T14:32:13.103Z,9.40
2017-04-22T14:33:13.265Z,9.00
2017-04-22T14:34:14.108Z,8.90
2017-04-22T14:35:14.556Z,8.90
2017-04-22T14:36:14.665Z,8.90
2017-04-22T14:37:14.771Z,8.90
2017-04-22T14:39:15.264Z,8.90
2017-04-22T14:40:16.159Z,8.80
2017-04-22T14:41:16.518Z,8.80
2017-04-22T14:42:16.870Z,8.70
2017-04-22T14:43:17.118Z,8.80
2017-04-22T14:44:17.255Z,8.60
2017-04-22T14:45:17.561Z,8.50
2017-04-22T14:46:17.679Z,8.60
2017-04-22T14:47:17.779Z,8.30
2017-04-22T14:48:17.880Z,8.20
2017-04-22T14:49:18.406Z,8.00
2017-04-22T14:50:18.478Z,7.90
2017-04-22T14:51:18.802Z,7.90
2017-04-22T14:52:19.636Z,7.80
2017-04-22T14:53:19.970Z,7.80
2017-04-22T14:54:20.042Z,7.50
2017-04-22T14:55:20.167Z,7.40
2017-04-22T14:56:21.132Z,7.30
2017-04-22T14:57:21.195Z,7.30
2017-04-22T14:58:22.133Z,7.30
2017-04-22T14:59:22.695Z,7.20
2017-04-22T15:00:23.187Z,7.20
2017-04-22T15:01:24.065Z,7.00
2017-04-22T15:02:24.539Z,7.10
2017-04-22T15:03:24.700Z,7.20
2017-04-22T15:04:24.801Z,7.00
2017-04-22T15:05:25.691Z,6.90
2017-04-22T15:06:25.771Z,6.80
2017-04-22T15:07:26.225Z,6.70
2017-04-22T15:08:26.755Z,6.70
2017-04-22T15:09:26.851Z,6.70
2017-04-22T15:10:27.361Z,6.70
2017-04-22T15:11:28.324Z,6.80
2017-04-22T15:12:27.747Z,6.80
2017-04-22T15:13:27.926Z,6.90
2017-04-22T15:14:28.715Z,6.90
2017-04-22T15:15:29.901Z,7.00
2017-04-22T15:16:30.482Z,6.90
2017-04-22T15:17:30.674Z,7.00
2017-04-22T15:18:30.908Z,7.10
2017-04-22T15:19:31.172Z,7.10
2017-04-22T15:20:31.214Z,7.20
2017-04-22T15:21:31.171Z,7.30
2017-04-22T15:22:31.532Z,7.30
2017-04-22T15:23:31.692Z,7.30
2017-04-22T15:24:32.432Z,7.30
2017-04-22T15:25:32.941Z,7.30
2017-04-22T15:27:33.406Z,7.60
2017-04-22T15:28:34.394Z,7.70
2017-04-22T15:29:35.677Z,7.80
2017-04-22T15:30:36.577Z,7.80
2017-04-22T15:31:37.987Z,7.70
2017-04-22T15:32:37.041Z,7.70
2017-04-22T15:33:37.906Z,7.70
2017-04-22T15:34:38.402Z,7.70
2017-04-22T15:35:38.280Z,7.60
2017-04-22T15:36:38.421Z,7.40
2017-04-22T15:37:38.961Z,7.30
2017-04-22T15:38:39.217Z,7.30
2017-04-22T15:39:39.767Z,7.20
2017-04-22T15:40:40.057Z,7.20
2017-04-22T15:41:41.275Z,7.20
2017-04-22T15:42:41.350Z,7.40
2017-04-22T15:43:41.417Z,7.60
2017-04-22T15:44:42.868Z,8.00
2017-04-22T15:45:42.692Z,8.30
2017-04-22T15:46:44.341Z,8.60
2017-04-22T15:47:44.400Z,8.90
2017-04-22T15:48:44.831Z,9.10
2017-04-22T15:49:44.765Z,9.40
2017-04-22T15:50:45.066Z,9.60
2017-04-22T15:51:45.991Z,9.40
2017-04-22T15:52:46.413Z,9.60
2017-04-22T15:53:47.257Z,9.30
2017-04-22T15:54:46.576Z,9.40
2017-04-22T15:55:46.515Z,9.00
2017-04-22T15:56:47.092Z,9.10
2017-04-22T15:57:47.099Z,9.10
2017-04-22T15:58:47.388Z,9.00
2017-04-22T15:59:47.913Z,8.80
2017-04-22T16:00:48.155Z,8.90
2017-04-22T16:01:48.711Z,9.00
2017-04-22T16:02:49.059Z,9.40
2017-04-22T16:03:49.028Z,9.40
2017-04-22T16:04:49.447Z,9.50
2017-04-22T16:05:49.599Z,9.80
2017-04-22T16:06:49.877Z,9.50
2017-04-22T16:07:49.996Z,9.60
2017-04-22T16:08:51.416Z,9.60
2017-04-22T16:09:51.601Z,9.80
2017-04-22T16:10:51.573Z,9.90
2017-04-22T16:11:55.109Z,10.20
2017-04-22T16:12:53.087Z,10.30
2017-04-22T16:13:53.579Z,10.20
2017-04-22T16:14:53.839Z,10.40
2017-04-22T16:15:54.309Z,10.30
2017-04-22T16:16:54.019Z,10.30
2017-04-22T16:17:54.593Z,10.60
2017-04-22T16:18:54.407Z,10.40
2017-04-22T16:19:54.774Z,10.60
2017-04-22T16:20:55.097Z,10.50
2017-04-22T16:21:56.208Z,10.50
2017-04-22T16:22:57.106Z,9.70
2017-04-22T16:23:57.709Z,9.70
2017-04-22T16:24:57.757Z,9.60
2017-04-22T16:25:57.781Z,9.50
2017-04-22T16:26:58.866Z,9.20
2017-04-22T16:27:58.309Z,8.90
2017-04-22T16:28:58.779Z,9.00
2017-04-22T16:29:59.339Z,8.90
2017-04-22T16:30:59.261Z,9.00
2017-04-22T16:31:59.972Z,9.00
2017-04-22T16:33:00.422Z,9.10
2017-04-22T16:34:00.657Z,9.30
2017-04-22T16:35:00.786Z,9.40
2017-04-22T16:36:01.352Z,9.10
2017-04-22T16:37:01.097Z,9.20
2017-04-22T16:38:01.985Z,9.20
2017-04-22T16:39:02.698Z,9.00
2017-04-22T16:40:02.290Z,9.20
2017-04-22T16:41:02.729Z,9.30
2017-04-22T16:42:03.669Z,9.10
2017-04-22T16:43:04.642Z,9.10
2017-04-22T16:44:05.108Z,9.30
2017-04-22T16:45:04.909Z,9.40
2017-04-22T16:46:05.657Z,9.00
2017-04-22T16:47:05.844Z,9.30
2017-04-22T16:48:06.885Z,9.40
2017-04-22T16:49:08.298Z,9.70
2017-04-22T16:50:08.713Z,9.60
2017-04-22T16:51:11.798Z,9.60
2017-04-22T16:52:10.540Z,9.70
2017-04-22T16:54:13.371Z,9.80
2017-04-22T16:55:14.599Z,10.10
2017-04-22T16:56:14.618Z,10.20
2017-04-22T16:57:15.113Z,10.10
2017-04-22T16:58:16.254Z,10.30
2017-04-22T16:59:16.340Z,10.40
2017-04-22T17:00:16.521Z,10.60
2017-04-22T17:01:16.545Z,10.40
2017-04-22T17:02:17.041Z,9.90
2017-04-22T17:03:16.956Z,9.80
2017-04-22T17:04:17.134Z,9.60
2017-04-22T17:05:18.749Z,8.90
2017-04-22T17:06:18.495Z,8.60
2017-04-22T17:07:18.875Z,8.60
2017-04-22T17:08:19.782Z,8.50
2017-04-22T17:09:20.744Z,8.40
2017-04-22T17:10:20.910Z,8.20
2017-04-22T17:11:21.250Z,8.10
2017-04-22T17:12:23.553Z,8.00
2017-04-22T17:13:23.721Z,8.00
2017-04-22T17:14:24.046Z,7.90
2017-04-22T17:15:24.321Z,7.80
2017-04-22T17:16:24.654Z,7.80
2017-04-22T17:17:25.728Z,7.90
2017-04-22T17:18:26.562Z,7.90
2017-04-22T17:19:27.045Z,8.00
2017-04-22T17:20:28.600Z,7.90
2017-04-22T17:21:27.573Z,7.80
2017-04-22T17:22:27.896Z,7.50
2017-04-22T17:23:28.319Z,7.50
2017-04-22T17:24:28.606Z,7.30
2017-04-22T17:25:29.044Z,7.10
2017-04-22T17:26:30.672Z,7.00
2017-04-22T17:27:29.415Z,7.00
2017-04-22T17:28:29.680Z,6.90
2017-04-22T17:29:30.019Z,6.90
2017-04-22T17:30:30.166Z,6.90
2017-04-22T17:31:31.399Z,7.00
2017-04-22T17:32:32.285Z,7.00
2017-04-22T17:33:32.860Z,7.10
2017-04-22T17:34:32.826Z,7.10
2017-04-22T17:35:33.091Z,7.10
2017-04-22T17:36:33.237Z,7.10
2017-04-22T17:37:33.624Z,7.00
2017-04-22T17:38:34.150Z,7.00
2017-04-22T17:39:34.389Z,7.00
2017-04-22T17:40:35.351Z,7.00
2017-04-22T17:41:35.609Z,7.00
2017-04-22T17:42:37.069Z,7.00
2017-04-22T17:43:37.429Z,7.00
2017-04-22T17:44:37.721Z,6.90
2017-04-22T17:45:38.704Z,6.90
2017-04-22T17:46:39.669Z,6.90
2017-04-22T17:47:40.330Z,6.90
2017-04-22T17:48:41.857Z,6.80
2017-04-22T17:49:42.083Z,6.80
2017-04-22T17:50:42.408Z,6.80
2017-04-22T17:51:42.598Z,6.80
2017-04-22T17:52:42.739Z,6.80
2017-04-22T17:53:43.027Z,6.90
2017-04-22T17:54:43.988Z,6.80
2017-04-22T17:55:44.218Z,6.90
2017-04-22T17:56:44.580Z,6.90
2017-04-22T17:57:45.332Z,6.90
2017-04-22T17:58:45.369Z,6.90
2017-04-22T17:59:45.593Z,6.90
2017-04-22T18:00:46.527Z,6.90
2017-04-22T18:01:47.055Z,7.00
2017-04-22T18:02:47.198Z,7.00
2017-04-22T18:03:47.310Z,7.00
2017-04-22T18:04:47.859Z,7.00
2017-04-22T18:05:47.974Z,7.00
2017-04-22T18:06:50.579Z,7.00
2017-04-22T18:07:48.241Z,7.10
2017-04-22T18:08:48.405Z,7.00
2017-04-22T18:09:49.091Z,7.10
2017-04-22T18:10:50.580Z,7.10
2017-04-22T18:11:49.735Z,7.10
2017-04-22T18:12:52.534Z,7.10
2017-04-22T18:13:51.232Z,7.10
2017-04-22T18:14:51.285Z,7.10
2017-04-22T18:15:51.447Z,7.10
2017-04-22T18:16:51.721Z,7.10
2017-04-22T18:17:53.478Z,7.10
2017-04-22T18:18:52.138Z,7.10
2017-04-22T18:19:54.207Z,7.10
2017-04-22T18:20:53.107Z,7.10
2017-04-22T18:21:53.438Z,7.10
2017-04-22T18:22:53.359Z,7.10
2017-04-22T18:24:54.027Z,7.20
2017-04-22T18:25:54.871Z,7.20
2017-04-22T18:26:54.485Z,7.00
2017-04-22T18:27:54.870Z,6.70
2017-04-22T18:28:55.517Z,6.40
2017-04-22T18:29:55.913Z,6.20
2017-04-22T18:30:55.949Z,6.10
2017-04-22T18:31:56.547Z,6.00
2017-04-22T18:32:57.735Z,5.90
2017-04-22T18:33:58.347Z,5.80
2017-04-22T18:34:59.080Z,5.70
2017-04-22T18:35:59.291Z,5.60
2017-04-22T18:36:59.608Z,5.50
2017-04-22T18:38:00.111Z,5.50
2017-04-22T18:39:01.884Z,5.50
2017-04-22T18:40:00.505Z,5.50
2017-04-22T18:41:00.373Z,5.60
2017-04-22T18:42:00.691Z,5.60
2017-04-22T18:43:03.170Z,5.60
2017-04-22T18:44:02.342Z,5.60
2017-04-22T18:45:02.124Z,5.50
2017-04-22T18:46:03.716Z,5.50
2017-04-22T18:47:02.586Z,5.40
2017-04-22T18:48:02.541Z,5.40
2017-04-22T18:49:05.267Z,5.40
2017-04-22T18:50:57.749Z,5.50
2017-04-22T18:51:57.529Z,5.50
2017-04-22T18:52:57.827Z,5.60
2017-04-22T18:53:59.295Z,5.70
2017-04-22T18:54:59.602Z,5.70
2017-04-22T18:55:59.447Z,5.70
2017-04-22T18:57:01.156Z,5.70
2017-04-22T18:57:59.701Z,5.70
2017-04-22T18:58:59.848Z,5.80
2017-04-22T18:59:59.907Z,5.80
2017-04-22T19:01:00.001Z,5.80
2017-04-22T19:02:01.416Z,5.80
2017-04-22T19:03:04.537Z,5.80
2017-04-22T19:04:02.646Z,5.90
2017-04-22T19:05:04.394Z,5.80
2017-04-22T19:06:03.029Z,5.70
2017-04-22T19:07:03.133Z,5.60
2017-04-22T19:08:03.420Z,5.50
2017-04-22T19:09:03.743Z,5.20
2017-04-22T19:10:03.974Z,5.00
2017-04-22T19:11:04.727Z,4.90
2017-04-22T19:12:05.261Z,4.90
2017-04-22T19:13:05.610Z,4.90
2017-04-22T19:14:05.477Z,4.80
2017-04-22T19:15:06.944Z,4.70
2017-04-22T19:16:07.025Z,4.70
2017-04-22T19:17:07.566Z,4.70
2017-04-22T19:18:07.527Z,4.70
2017-04-22T19:19:07.636Z,4.80
2017-04-22T19:20:08.332Z,4.80
2017-04-22T19:21:10.062Z,4.80
2017-04-22T19:22:09.462Z,4.80
2017-04-22T19:23:09.640Z,4.80
2017-04-22T19:24:09.802Z,4.80
2017-04-22T19:25:09.699Z,4.90
2017-04-22T19:26:10.556Z,4.90
2017-04-22T19:27:13.288Z,4.80
2017-04-22T19:28:12.813Z,4.80
2017-04-22T19:29:11.260Z,4.80
2017-04-22T19:30:11.575Z,4.80
2017-04-22T19:31:11.633Z,4.80
2017-04-22T19:32:12.141Z,4.80
2017-04-22T19:33:12.786Z,4.90
2017-04-22T19:34:13.465Z,4.80
2017-04-22T19:35:14.791Z,4.80
2017-04-22T19:36:13.987Z,4.70
2017-04-22T19:37:14.022Z,4.70
2017-04-22T19:38:15.918Z,4.60
2017-04-22T19:39:16.215Z,4.60
2017-04-22T19:40:14.530Z,4.60
2017-04-22T19:41:15.930Z,4.50
2017-04-22T19:42:15.350Z,4.50
2017-04-22T19:43:16.032Z,4.50
2017-04-22T19:44:16.276Z,4.50
2017-04-22T19:45:16.475Z,4.50
2017-04-22T19:46:17.014Z,4.50
2017-04-22T19:47:17.860Z,4.50
2017-04-22T19:48:19.600Z,4.50
2017-04-22T19:49:17.636Z,4.50
2017-04-22T19:50:18.009Z,4.50
2017-04-22T19:51:18.299Z,4.50
2017-04-22T19:52:20.152Z,4.50
2017-04-22T19:53:19.077Z,4.60
2017-04-22T19:54:23.186Z,4.60
2017-04-22T19:55:20.704Z,4.60
2017-04-22T19:56:19.921Z,4.60
2017-04-22T19:57:19.995Z,4.70
2017-04-22T19:58:21.075Z,4.70
2017-04-22T19:59:20.706Z,4.70
2017-04-22T20:00:21.613Z,4.70
2017-04-22T20:01:25.245Z,4.80
2017-04-22T20:02:22.393Z,4.80
2017-04-22T20:03:22.505Z,4.80
2017-04-22T20:04:23.463Z,4.90
2017-04-22T20:05:24.363Z,4.90
2017-04-22T20:06:24.255Z,4.90
2017-04-22T20:07:24.231Z,4.90
2017-04-22T20:08:24.915Z,5.00
2017-04-22T20:09:27.178Z,5.00
2017-04-22T20:10:25.699Z,5.10
2017-04-22T20:11:26.324Z,5.20
2017-04-22T20:12:26.195Z,5.20
2017-04-22T20:13:26.967Z,5.20
2017-04-22T20:14:26.786Z,5.20
2017-04-22T20:15:27.400Z,5.20
2017-04-22T20:16:29.388Z,5.30
2017-04-22T20:17:29.528Z,5.30
2017-04-22T20:18:30.551Z,5.40
2017-04-22T20:19:29.488Z,5.40
2017-04-22T20:20:31.913Z,5.40
2017-04-22T20:21:31.457Z,5.40
2017-04-22T20:22:30.640Z,5.40
2017-04-22T20:23:30.381Z,5.40
2017-04-22T20:24:30.541Z,5.40
2017-04-22T20:25:40.261Z,5.40
2017-04-22T20:27:32.289Z,5.40
2017-04-22T20:28:32.200Z,5.50
2017-04-22T20:29:33.288Z,5.50
2017-04-22T20:30:35.317Z,5.40
2017-04-22T20:31:37.412Z,5.50
2017-04-22T20:32:35.972Z,5.40
2017-04-22T20:33:36.182Z,5.50
2017-04-22T20:34:37.020Z,5.50
2017-04-22T20:35:37.480Z,5.50
2017-04-22T20:36:37.175Z,5.50
2017-04-22T20:37:39.533Z,5.50
2017-04-22T20:38:39.216Z,5.50
2017-04-22T20:39:39.285Z,5.60
2017-04-22T20:40:39.801Z,5.50
2017-04-22T20:41:39.853Z,5.50
2017-04-22T20:42:39.510Z,5.50
2017-04-22T20:43:40.691Z,5.60
2017-04-22T20:44:44.945Z,5.60
2017-04-22T20:45:41.109Z,5.60
2017-04-22T20:46:41.089Z,5.60
2017-04-22T20:47:41.961Z,5.60
2017-04-22T20:48:42.094Z,5.60
2017-04-22T20:49:41.257Z,5.60
2017-04-22T20:50:44.265Z,5.60
2017-04-22T20:51:42.988Z,5.60
2017-04-22T20:52:43.354Z,5.50
2017-04-22T20:53:44.029Z,5.60
2017-04-22T20:54:44.635Z,5.50
2017-04-22T20:55:45.182Z,5.50
2017-04-22T20:56:44.811Z,5.50
2017-04-22T20:57:45.864Z,5.50
2017-04-22T20:58:45.688Z,5.50
2017-04-22T20:59:46.744Z,5.50
2017-04-22T21:00:46.331Z,5.50
2017-04-22T21:01:46.511Z,5.50
2017-04-22T21:02:46.601Z,5.50
2017-04-22T21:03:46.864Z,5.50
2017-04-22T21:04:47.048Z,5.50
2017-04-22T21:05:48.127Z,5.50
2017-04-22T21:06:48.288Z,5.50
2017-04-22T21:07:48.368Z,5.50
2017-04-22T21:08:48.513Z,5.40
2017-04-22T21:09:48.742Z,5.40
2017-04-22T21:10:48.850Z,5.40
2017-04-22T21:11:49.042Z,5.40
2017-04-22T21:12:49.896Z,5.40
2017-04-22T21:13:50.066Z,5.40
2017-04-22T21:14:51.260Z,5.40
2017-04-22T21:15:51.652Z,5.40
2017-04-22T21:16:51.758Z,5.40
2017-04-22T21:17:52.689Z,5.40
2017-04-22T21:18:53.891Z,5.30
2017-04-22T21:19:55.133Z,5.40
2017-04-22T21:20:55.201Z,5.40
2017-04-22T21:21:55.417Z,5.40
2017-04-22T21:22:55.516Z,5.40
2017-04-22T21:23:55.550Z,5.40
2017-04-22T21:24:55.976Z,5.40
2017-04-22T21:25:56.095Z,5.30
2017-04-22T21:26:56.182Z,5.40
2017-04-22T21:27:56.652Z,5.40
2017-04-22T21:28:56.865Z,5.40
2017-04-22T21:29:57.768Z,5.40
2017-04-22T21:30:57.885Z,5.40
2017-04-22T21:31:58.059Z,5.40
2017-04-22T21:32:58.166Z,5.40
2017-04-22T21:33:58.387Z,5.40
2017-04-22T21:34:59.267Z,5.40
2017-04-22T21:35:59.451Z,5.40
2017-04-22T21:36:59.569Z,5.40
2017-04-22T21:37:59.681Z,5.40
2017-04-22T21:38:59.789Z,5.40
2017-04-22T21:39:59.983Z,5.40
2017-04-22T21:41:00.055Z,5.40
2017-04-22T21:42:00.179Z,5.40
2017-04-22T21:43:00.518Z,5.30
2017-04-22T21:44:01.481Z,5.30
2017-04-22T21:45:02.043Z,5.30
2017-04-22T21:46:03.141Z,5.30
2017-04-22T21:47:03.256Z,5.30
2017-04-22T21:48:03.368Z,5.30
2017-04-22T21:49:03.474Z,5.30
2017-04-22T21:50:03.694Z,5.30
2017-04-22T21:51:03.831Z,5.20
2017-04-22T21:52:04.006Z,5.30
2017-04-22T21:53:04.177Z,5.20
2017-04-22T21:54:04.489Z,5.20
2017-04-22T21:55:04.834Z,5.20
2017-04-22T21:56:05.669Z,5.20
2017-04-22T21:57:05.870Z,5.20
2017-04-22T21:58:05.988Z,5.20
2017-04-22T21:59:06.078Z,5.20
2017-04-22T22:00:06.410Z,5.20
2017-04-22T22:01:06.609Z,5.20
2017-04-22T22:02:06.694Z,5.20